Time;durP1;ratioP1;P1;durP2;ratioP2;P2;SDS_P1;SDS_P2;PMS_P1;PMS_P2;Temp;Humidity;BMP_temperature;BMP_pressure;BME280_temperature;BME280_humidity;BME280_pressure;Samples;Min_cycle;Max_cycle;Signal;HPM_P1;HPM_P2
2022/07/16 00:02:38;;;;;;;3.78;0.98;;;15.80;99.10;;;;;;4944013;28;20196;-88
2022/07/16 00:05:04;;;;;;;2.25;1.02;;;15.80;99.10;;;;;;4973249;28;20208;-88
2022/07/16 00:07:30;;;;;;;1.58;0.98;;;15.80;99.20;;;;;;4973431;28;20400;-88
2022/07/16 00:09:56;;;;;;;2.05;1.10;;;15.70;99.30;;;;;;4973254;28;20216;-86
2022/07/16 00:12:22;;;;;;;3.47;1.42;;;15.70;99.20;;;;;;5400454;23;20274;-87
2022/07/16 00:14:47;;;;;;;3.80;1.17;;;15.80;99.20;;;;;;4986725;28;20524;-88
2022/07/16 00:17:13;;;;;;;5.10;1.10;;;15.80;99.20;;;;;;4995839;28;20286;-88
2022/07/16 00:19:39;;;;;;;3.58;1.25;;;15.80;99.20;;;;;;4997515;28;20626;-88
2022/07/16 00:22:04;;;;;;;2.00;1.20;;;15.90;99.20;;;;;;4996198;28;20191;-87
2022/07/16 00:24:30;;;;;;;2.38;1.10;;;15.80;99.10;;;;;;4996489;28;20207;-87
2022/07/16 00:26:55;;;;;;;3.90;1.35;;;15.80;99.30;;;;;;4996127;28;20660;-87
2022/07/16 00:29:22;;;;;;;1.90;1.05;;;15.80;99.20;;;;;;4995890;28;20226;-88
2022/07/16 00:31:49;;;;;;;3.08;1.00;;;15.80;99.40;;;;;;4997216;28;20207;-87
2022/07/16 00:34:15;;;;;;;1.63;0.95;;;15.80;99.40;;;;;;4995673;28;20180;-87
2022/07/16 00:36:41;;;;;;;1.92;0.98;;;15.80;99.50;;;;;;4995945;28;20202;-89
2022/07/16 00:39:08;;;;;;;2.33;1.10;;;15.80;99.50;;;;;;4995693;28;20194;-88
2022/07/16 00:41:35;;;;;;;2.10;1.17;;;15.80;99.50;;;;;;4992886;28;20192;-87
2022/07/16 00:44:05;;;;;;;2.38;1.10;;;15.80;99.50;;;;;;4976511;28;20189;-88
2022/07/16 00:46:31;;;;;;;3.22;1.27;;;15.70;99.50;;;;;;4977085;28;20189;-88
2022/07/16 00:48:58;;;;;;;2.85;1.30;;;15.80;99.50;;;;;;4983631;28;20294;-87
2022/07/16 00:51:25;;;;;;;3.20;1.40;;;15.80;99.60;;;;;;4997247;28;20184;-89
2022/07/16 00:53:54;;;;;;;3.03;1.15;;;15.70;99.40;;;;;;4997281;28;20182;-90
2022/07/16 00:56:20;;;;;;;1.80;1.10;;;15.80;99.50;;;;;;4997321;28;20218;-90
2022/07/16 00:58:47;;;;;;;4.10;1.05;;;15.80;99.50;;;;;;4996267;28;20188;-89
2022/07/16 01:01:14;;;;;;;2.83;1.00;;;15.80;99.50;;;;;;4996156;28;20207;-88
2022/07/16 01:03:42;;;;;;;1.63;0.80;;;15.70;99.50;;;;;;4995906;28;20179;-89
2022/07/16 01:06:09;;;;;;;2.28;0.85;;;15.70;99.70;;;;;;4995864;28;20550;-89
2022/07/16 01:08:37;;;;;;;4.30;1.35;;;15.70;99.60;;;;;;5008660;28;20207;-89
2022/07/16 01:11:05;;;;;;;3.17;1.00;;;15.70;99.40;;;;;;5015843;28;20179;-88
2022/07/16 01:13:34;;;;;;;0.93;0.70;;;15.70;99.30;;;;;;5001445;28;20255;-87
2022/07/16 01:15:59;;;;;;;2.28;0.80;;;15.70;99.30;;;;;;4995289;28;20180;-90
2022/07/16 01:18:25;;;;;;;7.57;0.98;;;15.70;99.30;;;;;;4994898;28;20184;-88
2022/07/16 01:20:51;;;;;;;3.53;0.70;;;15.70;99.10;;;;;;4995913;28;20757;-88
2022/07/16 01:23:22;;;;;;;1.83;0.60;;;15.70;99.00;;;;;;4995685;28;20187;-90
2022/07/16 01:25:49;;;;;;;1.17;0.70;;;15.70;98.90;;;;;;4994725;28;20187;-90
2022/07/16 01:28:16;;;;;;;1.20;0.45;;;15.80;98.80;;;;;;4995708;28;20176;-89
2022/07/16 01:30:42;;;;;;;0.80;0.50;;;15.80;98.80;;;;;;4995320;28;20186;-86
2022/07/16 01:33:22;;;;;;;1.05;0.60;;;15.80;98.70;;;;;;4993703;28;20270;-87
2022/07/16 01:35:50;;;;;;;1.67;0.60;;;15.90;98.60;;;;;;4996364;28;20178;-88
2022/07/16 01:38:16;;;;;;;1.15;0.47;;;15.90;98.70;;;;;;5003694;28;20183;-88
2022/07/16 01:40:42;;;;;;;1.17;0.40;;;15.80;98.60;;;;;;5015265;28;20306;-90
2022/07/16 01:43:19;;;;;;;0.95;0.50;;;15.80;98.40;;;;;;4994887;28;20180;-89
2022/07/16 01:45:47;;;;;;;4.43;0.80;;;15.90;98.30;;;;;;4976824;28;20619;-89
2022/07/16 01:48:14;;;;;;;0.50;0.40;;;15.80;98.00;;;;;;4996144;28;20172;-88
2022/07/16 01:50:42;;;;;;;1.73;0.60;;;15.80;97.90;;;;;;4995462;28;20793;-89
2022/07/16 01:53:09;;;;;;;0.60;0.52;;;15.80;97.80;;;;;;4994831;28;20186;-90
2022/07/16 01:55:35;;;;;;;2.47;0.55;;;15.80;97.80;;;;;;4995933;28;20172;-88
2022/07/16 01:58:02;;;;;;;1.30;0.50;;;15.80;98.30;;;;;;4994557;28;20176;-89
2022/07/16 02:00:28;;;;;;;1.48;0.63;;;15.80;98.00;;;;;;4995059;28;20179;-89
2022/07/16 02:02:54;;;;;;;0.70;0.30;;;15.80;98.20;;;;;;4995539;28;20202;-86
2022/07/16 02:05:21;;;;;;;0.75;0.50;;;15.80;98.20;;;;;;5015363;28;20179;-88
2022/07/16 02:07:47;;;;;;;1.92;0.60;;;15.80;98.20;;;;;;5015620;28;20171;-89
2022/07/16 02:10:13;;;;;;;1.67;0.60;;;15.80;98.20;;;;;;4995325;28;20211;-88
2022/07/16 02:12:39;;;;;;;1.67;0.50;;;15.80;98.20;;;;;;4994443;28;20318;-88
2022/07/16 02:15:05;;;;;;;2.13;1.10;;;15.80;98.20;;;;;;4993371;28;20184;-88
2022/07/16 02:17:31;;;;;;;0.98;0.40;;;15.80;98.30;;;;;;4994560;28;20175;-88
2022/07/16 02:19:57;;;;;;;1.08;0.40;;;15.80;98.30;;;;;;4995617;28;20176;-87
2022/07/16 02:22:22;;;;;;;2.15;0.73;;;15.80;98.20;;;;;;4993346;28;20226;-89
2022/07/16 02:24:48;;;;;;;1.23;0.57;;;15.70;98.50;;;;;;4994744;28;20183;-88
2022/07/16 02:27:14;;;;;;;0.93;0.40;;;15.70;98.40;;;;;;4994403;28;20211;-90
2022/07/16 02:29:39;;;;;;;1.63;0.50;;;15.70;98.30;;;;;;4992475;28;20303;-87
2022/07/16 02:32:05;;;;;;;2.33;0.70;;;15.70;98.50;;;;;;4994345;28;20172;-88
2022/07/16 02:34:32;;;;;;;3.42;0.60;;;15.70;98.50;;;;;;4990304;28;20193;-88
2022/07/16 02:36:57;;;;;;;2.55;0.70;;;15.70;98.70;;;;;;4993451;28;20194;-88
2022/07/16 02:39:23;;;;;;;2.25;0.50;;;15.70;98.90;;;;;;4993744;28;20710;-87
2022/07/16 02:41:48;;;;;;;1.20;0.63;;;15.70;98.90;;;;;;4994058;28;20178;-88
2022/07/16 02:44:14;;;;;;;3.13;0.77;;;15.70;99.00;;;;;;4993989;28;20184;-87
2022/07/16 02:46:40;;;;;;;1.50;0.82;;;15.70;99.00;;;;;;5007821;28;20186;-88
2022/07/16 02:49:05;;;;;;;1.73;0.70;;;15.80;99.10;;;;;;4996441;28;20232;-87
2022/07/16 02:51:31;;;;;;;1.85;1.13;;;15.70;99.10;;;;;;4992748;28;20179;-87
2022/07/16 02:53:57;;;;;;;1.55;0.77;;;15.70;99.30;;;;;;4993550;28;20176;-89
2022/07/16 02:56:22;;;;;;;2.92;0.80;;;15.80;99.70;;;;;;4988437;28;20176;-89
2022/07/16 02:58:48;;;;;;;2.67;0.68;;;15.70;99.50;;;;;;4993759;28;20517;-89
2022/07/16 03:01:14;;;;;;;2.33;0.68;;;15.70;99.40;;;;;;4993580;28;20190;-88
2022/07/16 03:03:39;;;;;;;1.40;0.85;;;15.70;99.40;;;;;;4993991;28;20180;-89
2022/07/16 03:06:06;;;;;;;1.70;0.80;;;15.70;99.40;;;;;;4994002;28;20696;-88
2022/07/16 03:08:31;;;;;;;1.60;0.70;;;15.80;99.50;;;;;;4992525;28;20654;-88
2022/07/16 03:10:57;;;;;;;1.75;0.60;;;15.80;99.50;;;;;;4995011;28;20204;-88
2022/07/16 03:13:23;;;;;;;1.08;0.70;;;15.80;99.60;;;;;;4993249;28;20574;-89
2022/07/16 03:15:48;;;;;;;4.82;0.85;;;15.70;99.60;;;;;;4992940;28;20198;-88
2022/07/16 03:18:14;;;;;;;3.22;0.80;;;15.70;99.60;;;;;;4995374;28;20183;-88
2022/07/16 03:20:39;;;;;;;2.92;0.90;;;15.80;99.50;;;;;;5011757;28;20176;-89
2022/07/16 03:23:05;;;;;;;1.38;0.70;;;15.80;99.70;;;;;;4993654;28;20184;-88
2022/07/16 03:25:31;;;;;;;2.55;0.68;;;15.70;99.80;;;;;;4994744;28;20573;-88
2022/07/16 03:27:56;;;;;;;5.55;0.90;;;15.80;99.70;;;;;;4993069;28;20550;-88
2022/07/16 03:30:22;;;;;;;3.85;0.60;;;15.70;99.80;;;;;;4993401;28;20552;-88
2022/07/16 03:32:48;;;;;;;1.20;0.80;;;15.80;99.80;;;;;;4993581;28;20182;-89
2022/07/16 03:35:14;;;;;;;2.03;0.77;;;15.80;99.90;;;;;;4988860;28;20184;-86
2022/07/16 03:40:26;;;;;;;1.67;0.80;;;15.80;99.90;;;;;;4980242;28;20234;-88
2022/07/16 03:42:52;;;;;;;3.28;0.93;;;15.80;99.90;;;;;;4993372;28;20194;-89
2022/07/16 03:45:19;;;;;;;1.02;0.80;;;15.80;99.80;;;;;;4987300;28;20613;-88
2022/07/16 03:47:44;;;;;;;2.15;0.85;;;15.80;99.80;;;;;;4990587;28;20234;-88
2022/07/16 03:50:10;;;;;;;1.65;0.73;;;15.80;99.90;;;;;;4996852;28;20229;-87
2022/07/16 03:52:36;;;;;;;4.47;0.85;;;15.80;99.80;;;;;;4992871;28;20501;-88
2022/07/16 03:55:05;;;;;;;2.20;0.73;;;15.90;99.80;;;;;;4993328;28;20181;-87
2022/07/16 03:57:31;;;;;;;1.70;0.80;;;15.90;99.90;;;;;;4979676;28;20181;-88
2022/07/16 03:59:56;;;;;;;4.00;1.17;;;15.90;99.80;;;;;;4995834;28;20183;-88
2022/07/16 04:02:22;;;;;;;2.70;0.90;;;15.90;99.80;;;;;;4996290;28;20187;-88
2022/07/16 04:04:47;;;;;;;3.05;0.90;;;15.90;99.90;;;;;;4992388;28;20260;-88
2022/07/16 04:07:14;;;;;;;3.85;0.90;;;15.90;99.90;;;;;;4990957;28;20262;-87
2022/07/16 04:09:40;;;;;;;1.17;0.80;;;15.90;99.80;;;;;;4996940;28;20654;-88
2022/07/16 04:12:05;;;;;;;1.35;0.82;;;15.90;99.90;;;;;;4996735;28;20266;-87
2022/07/16 04:14:31;;;;;;;3.38;1.10;;;15.90;99.90;;;;;;4996569;28;20182;-87
2022/07/16 04:16:58;;;;;;;1.00;0.80;;;15.90;99.90;;;;;;4996580;28;20188;-88
2022/07/16 04:19:23;;;;;;;1.92;0.80;;;16.00;99.90;;;;;;4996733;28;20187;-88
2022/07/16 04:21:49;;;;;;;2.13;1.10;;;16.00;99.90;;;;;;4996849;28;20630;-89
2022/07/16 04:24:14;;;;;;;3.67;1.15;;;16.00;99.90;;;;;;4995718;28;20219;-87
2022/07/16 04:26:43;;;;;;;1.85;1.00;;;16.10;99.90;;;;;;5014750;28;20183;-89
2022/07/16 04:29:09;;;;;;;1.63;1.00;;;16.10;99.90;;;;;;5016071;28;20276;-87
2022/07/16 04:31:35;;;;;;;3.03;0.85;;;16.20;99.90;;;;;;5010199;28;20615;-86
2022/07/16 04:34:00;;;;;;;2.47;1.02;;;16.20;99.90;;;;;;4977746;28;20191;-87
2022/07/16 04:36:28;;;;;;;2.33;1.20;;;16.10;99.90;;;;;;4981557;28;20187;-88
2022/07/16 04:38:53;;;;;;;1.90;1.10;;;16.10;99.90;;;;;;4997161;28;20199;-86
2022/07/16 04:41:19;;;;;;;2.30;1.20;;;16.00;99.90;;;;;;4996135;28;20184;-89
2022/07/16 04:43:45;;;;;;;1.17;0.90;;;16.00;99.90;;;;;;5003812;28;20183;-89
2022/07/16 04:46:13;;;;;;;3.08;1.35;;;15.90;99.90;;;;;;5016118;28;20513;-88
2022/07/16 04:48:40;;;;;;;2.50;1.23;;;15.90;99.90;;;;;;5014570;28;20780;-88
2022/07/16 04:51:06;;;;;;;2.67;1.35;;;15.80;99.90;;;;;;4993708;28;20618;-89
2022/07/16 04:53:34;;;;;;;3.05;1.73;;;15.70;99.90;;;;;;4997499;28;20185;-88
2022/07/16 04:56:00;;;;;;;2.40;1.50;;;15.70;99.90;;;;;;4998759;28;20175;-88
2022/07/16 04:58:26;;;;;;;2.20;1.42;;;15.60;99.90;;;;;;5015589;28;20221;-87
2022/07/16 05:00:52;;;;;;;4.10;1.63;;;15.40;99.90;;;;;;5015200;28;20179;-87
2022/07/16 05:03:18;;;;;;;2.58;1.63;;;15.40;99.90;;;;;;5002842;28;20188;-87
2022/07/16 05:05:43;;;;;;;2.65;1.50;;;15.30;99.90;;;;;;4977846;28;20214;-88
2022/07/16 05:08:09;;;;;;;1.90;1.35;;;15.40;99.90;;;;;;4992996;28;20271;-88
2022/07/16 05:10:36;;;;;;;3.53;2.00;;;15.40;99.90;;;;;;4996309;28;20206;-87
2022/07/16 05:13:02;;;;;;;1.95;1.65;;;15.30;99.90;;;;;;4995559;28;20227;-88
2022/07/16 05:15:29;;;;;;;4.50;1.95;;;15.30;99.90;;;;;;4996004;28;20180;-87
2022/07/16 05:17:55;;;;;;;3.45;1.50;;;15.30;99.90;;;;;;5016501;28;20177;-89
2022/07/16 05:20:21;;;;;;;1.95;1.67;;;15.30;99.90;;;;;;5015475;28;20701;-88
2022/07/16 05:22:46;;;;;;;2.53;1.40;;;15.40;99.90;;;;;;5005211;28;20183;-89
2022/07/16 05:25:12;;;;;;;4.30;2.03;;;15.40;99.90;;;;;;5015570;28;20202;-88
2022/07/16 05:27:41;;;;;;;4.03;1.80;;;15.40;99.90;;;;;;5016015;28;20182;-90
2022/07/16 05:30:09;;;;;;;2.15;1.35;;;15.40;99.90;;;;;;4998523;28;20311;-88
2022/07/16 05:32:35;;;;;;;2.85;1.67;;;15.50;99.90;;;;;;4992770;28;20180;-91
2022/07/16 05:35:01;;;;;;;3.42;1.88;;;15.50;99.90;;;;;;5000070;28;20187;-89
2022/07/16 05:37:29;;;;;;;3.35;1.60;;;15.60;99.90;;;;;;4995483;28;20184;-90
2022/07/16 05:39:54;;;;;;;2.83;1.50;;;15.60;99.90;;;;;;4996830;28;20172;-91
2022/07/16 05:42:20;;;;;;;3.08;1.80;;;15.70;99.90;;;;;;4988834;28;20240;-90
2022/07/16 05:44:46;;;;;;;2.38;1.30;;;15.80;99.90;;;;;;4976255;28;20192;-91
2022/07/16 05:47:11;;;;;;;3.85;1.58;;;15.80;99.90;;;;;;4976409;28;20179;-89
2022/07/16 05:49:37;;;;;;;4.38;1.52;;;15.80;99.90;;;;;;4987228;28;20206;-89
2022/07/16 05:52:03;;;;;;;1.70;1.25;;;15.80;99.90;;;;;;4995620;28;20505;-89
2022/07/16 05:54:29;;;;;;;2.25;1.52;;;15.90;99.90;;;;;;4996727;28;20172;-91
2022/07/16 05:56:56;;;;;;;2.08;1.20;;;15.90;99.90;;;;;;4994518;28;20176;-90
2022/07/16 05:59:22;;;;;;;5.07;1.40;;;15.90;99.90;;;;;;4995552;28;20658;-88
2022/07/16 06:01:48;;;;;;;2.42;1.52;;;16.00;99.90;;;;;;4995987;28;20541;-90
2022/07/16 06:04:14;;;;;;;1.77;1.33;;;16.00;99.90;;;;;;4995037;28;20194;-90
2022/07/16 06:06:39;;;;;;;2.00;1.40;;;16.10;99.90;;;;;;4995643;28;20212;-88
2022/07/16 06:09:05;;;;;;;3.88;1.75;;;16.30;99.90;;;;;;4986003;28;20211;-88
2022/07/16 06:11:31;;;;;;;2.63;1.50;;;16.40;99.90;;;;;;4974757;28;20184;-89
2022/07/16 06:13:56;;;;;;;2.38;1.48;;;16.50;99.90;;;;;;4974702;28;20232;-89
2022/07/16 06:16:22;;;;;;;1.95;1.50;;;16.60;99.90;;;;;;4984078;28;20187;-89
2022/07/16 06:18:49;;;;;;;4.38;1.52;;;16.60;99.90;;;;;;4994835;28;20198;-89
2022/07/16 06:21:15;;;;;;;3.47;1.45;;;16.60;99.90;;;;;;4991694;28;20242;-87
2022/07/16 06:23:41;;;;;;;2.80;1.52;;;16.60;99.90;;;;;;4994086;28;20557;-89
2022/07/16 06:26:06;;;;;;;2.08;1.27;;;16.70;99.90;;;;;;4995941;28;20227;-89
2022/07/16 06:28:33;;;;;;;2.50;1.40;;;16.70;99.90;;;;;;4986069;28;20172;-89
2022/07/16 06:30:58;;;;;;;4.78;1.50;;;16.90;99.90;;;;;;4984611;28;20184;-88
2022/07/16 06:33:24;;;;;;;2.90;1.58;;;16.90;99.90;;;;;;4994252;28;20183;-88
2022/07/16 06:35:51;;;;;;;2.03;1.30;;;17.00;99.90;;;;;;4991965;28;20267;-88
2022/07/16 06:38:16;;;;;;;2.60;1.30;;;17.00;99.90;;;;;;4990260;28;20184;-90
2022/07/16 06:40:43;;;;;;;2.22;1.15;;;17.10;99.90;;;;;;4985575;28;20203;-88
2022/07/16 06:43:09;;;;;;;2.13;1.30;;;17.20;99.90;;;;;;5000593;28;20183;-89
2022/07/16 06:45:35;;;;;;;3.95;1.40;;;17.30;99.90;;;;;;4994276;28;20267;-89
2022/07/16 06:48:04;;;;;;;3.10;1.35;;;17.40;99.90;;;;;;4994152;28;20790;-89
2022/07/16 06:50:29;;;;;;;2.22;1.05;;;17.40;99.90;;;;;;4993645;28;20203;-88
2022/07/16 06:52:55;;;;;;;4.40;1.45;;;17.40;99.90;;;;;;4984039;28;20667;-87
2022/07/16 06:55:20;;;;;;;2.42;1.20;;;17.40;99.90;;;;;;4974455;28;20187;-88
2022/07/16 06:57:47;;;;;;;3.70;1.67;;;17.30;99.90;;;;;;4974803;28;20192;-89
2022/07/16 07:00:13;;;;;;;1.65;1.40;;;17.40;99.90;;;;;;4990072;28;20634;-87
2022/07/16 07:02:39;;;;;;;2.05;1.10;;;17.50;99.90;;;;;;4995604;28;20180;-87
2022/07/16 07:05:05;;;;;;;2.90;1.70;;;17.70;99.90;;;;;;4993241;28;20172;-88
2022/07/16 07:07:32;;;;;;;1.50;1.00;;;17.70;99.90;;;;;;4994387;28;20183;-89
2022/07/16 07:09:57;;;;;;;2.38;1.23;;;17.70;99.90;;;;;;4986686;28;20211;-90
2022/07/16 07:12:23;;;;;;;1.60;0.88;;;17.90;99.90;;;;;;4975194;28;20224;-89
2022/07/16 07:14:49;;;;;;;3.63;1.27;;;18.20;99.90;;;;;;4992848;28;20266;-88
2022/07/16 07:17:14;;;;;;;1.13;0.98;;;18.40;99.90;;;;;;4974539;28;20183;-90
2022/07/16 07:19:40;;;;;;;1.65;1.20;;;18.50;99.90;;;;;;4975341;28;20529;-90
2022/07/16 07:22:05;;;;;;;3.05;0.80;;;18.70;99.90;;;;;;4993797;28;20183;-88
2022/07/16 07:24:31;;;;;;;4.18;1.10;;;18.90;99.90;;;;;;4996713;28;20179;-88
2022/07/16 07:26:57;;;;;;;1.77;0.82;;;19.00;99.90;;;;;;4997707;28;20180;-90
2022/07/16 07:29:22;;;;;;;1.48;1.08;;;19.00;99.50;;;;;;4997749;28;20215;-87
2022/07/16 07:31:48;;;;;;;1.90;0.90;;;18.90;99.30;;;;;;4997919;28;20211;-91
2022/07/16 07:34:14;;;;;;;11.25;1.00;;;19.00;99.20;;;;;;4998940;28;20223;-90
2022/07/16 07:36:40;;;;;;;0.80;0.80;;;19.00;97.40;;;;;;4997694;28;20211;-92
2022/07/16 07:39:05;;;;;;;2.20;1.00;;;18.80;98.00;;;;;;4995736;28;20192;-87
2022/07/16 07:41:31;;;;;;;3.65;1.20;;;18.80;98.50;;;;;;4995429;28;20184;-89
2022/07/16 07:43:56;;;;;;;2.95;1.27;;;18.90;98.90;;;;;;4995622;28;20175;-89
2022/07/16 07:46:22;;;;;;;1.17;0.90;;;19.10;97.60;;;;;;4996004;28;20183;-92
2022/07/16 07:48:48;;;;;;;4.43;1.17;;;19.20;97.20;;;;;;4996881;28;20207;-89
2022/07/16 07:51:13;;;;;;;1.95;1.00;;;19.10;96.80;;;;;;4998040;28;20210;-89
2022/07/16 07:53:39;;;;;;;4.70;1.05;;;19.00;96.60;;;;;;4996836;28;20183;-89
2022/07/16 07:56:05;;;;;;;2.83;1.33;;;18.90;96.80;;;;;;4997854;28;20176;-90
2022/07/16 07:58:31;;;;;;;2.30;0.98;;;18.60;98.20;;;;;;4998257;28;20180;-89
2022/07/16 08:00:56;;;;;;;1.23;1.13;;;18.30;98.90;;;;;;4996611;28;20595;-91
2022/07/16 08:03:22;;;;;;;3.28;1.20;;;18.00;99.90;;;;;;4989045;28;20662;-91
2022/07/16 08:05:48;;;;;;;4.78;1.15;;;17.90;99.90;;;;;;4981338;28;20180;-88
2022/07/16 08:08:14;;;;;;;1.83;0.98;;;17.70;99.90;;;;;;4978724;28;20177;-90
2022/07/16 08:10:40;;;;;;;3.15;1.10;;;17.70;99.90;;;;;;4977151;28;20551;-90
2022/07/16 08:13:05;;;;;;;2.58;1.10;;;17.80;99.90;;;;;;4977203;28;20235;-88
2022/07/16 08:15:31;;;;;;;1.73;1.00;;;18.00;99.90;;;;;;4977331;28;20638;-89
2022/07/16 08:17:57;;;;;;;3.08;1.20;;;18.30;99.90;;;;;;4977212;28;20180;-88
2022/07/16 08:20:23;;;;;;;2.90;1.20;;;18.60;99.90;;;;;;4976206;28;20249;-88
2022/07/16 08:22:49;;;;;;;3.22;0.90;;;19.00;99.90;;;;;;4993095;28;20191;-91
2022/07/16 08:27:59;;;;;;;1.90;0.90;;;19.40;97.70;;;;;;4998028;28;20184;-89
2022/07/16 08:30:25;;;;;;;2.55;0.90;;;19.40;96.80;;;;;;4997663;28;20623;-89
2022/07/16 08:32:50;;;;;;;3.58;0.90;;;19.40;97.20;;;;;;4996484;28;20243;-89
2022/07/16 08:35:16;;;;;;;1.17;0.80;;;19.40;96.30;;;;;;4994775;28;20195;-87
2022/07/16 08:37:44;;;;;;;5.28;1.13;;;19.40;95.70;;;;;;4996179;28;20603;-90
2022/07/16 08:40:20;;;;;;;3.35;0.90;;;19.30;96.40;;;;;;4996250;28;20192;-86
2022/07/16 08:42:46;;;;;;;2.38;0.80;;;19.40;96.80;;;;;;4997474;28;20168;-88
2022/07/16 08:45:15;;;;;;;2.70;1.08;;;19.40;96.70;;;;;;4996053;28;20195;-88
2022/07/16 08:47:41;;;;;;;2.38;1.10;;;19.80;95.90;;;;;;4996278;28;20191;-88
2022/07/16 08:50:12;;;;;;;0.70;0.57;;;19.70;95.30;;;;;;4997066;28;20211;-87
2022/07/16 08:52:40;;;;;;;1.95;1.10;;;19.50;94.90;;;;;;4996265;28;20191;-89
2022/07/16 08:55:07;;;;;;;3.88;0.80;;;19.40;96.60;;;;;;4997054;28;20176;-89
2022/07/16 08:57:35;;;;;;;3.50;1.20;;;19.50;95.80;;;;;;4996085;28;20180;-89
2022/07/16 09:00:01;;;;;;;3.58;1.08;;;19.50;96.10;;;;;;4995766;28;20297;-87
2022/07/16 09:02:27;;;;;;;2.47;0.90;;;19.40;94.80;;;;;;4995795;28;20208;-90
2022/07/16 09:04:52;;;;;;;2.47;1.13;;;19.20;95.30;;;;;;4995738;28;20219;-92
2022/07/16 09:07:19;;;;;;;2.25;0.80;;;19.30;95.80;;;;;;4995013;28;20273;-89
2022/07/16 09:09:45;;;;;;;1.08;0.70;;;19.40;96.00;;;;;;4995505;28;20215;-92
2022/07/16 09:12:12;;;;;;;3.58;0.75;;;19.70;95.40;;;;;;4995532;28;20701;-90
2022/07/16 09:14:38;;;;;;;2.75;0.90;;;19.80;95.10;;;;;;5009038;28;20193;-88
2022/07/16 09:17:04;;;;;;;1.75;0.70;;;20.00;94.20;;;;;;5014763;28;20179;-86
2022/07/16 09:19:30;;;;;;;3.17;1.00;;;20.10;94.50;;;;;;5000277;28;20174;-88
2022/07/16 09:22:13;;;;;;;1.95;0.85;;;20.40;93.70;;;;;;4995461;28;20230;-86
2022/07/16 09:24:40;;;;;;;2.55;0.80;;;20.50;93.70;;;;;;4994926;28;20186;-88
2022/07/16 09:27:19;;;;;;;4.00;0.95;;;20.60;92.90;;;;;;4995133;28;20270;-86
2022/07/16 09:29:58;;;;;;;2.25;0.73;;;20.00;92.90;;;;;;4996573;28;20200;-90
2022/07/16 09:32:35;;;;;;;1.80;0.80;;;19.50;93.90;;;;;;4996173;28;20184;-92
2022/07/16 09:35:11;;;;;;;3.22;0.80;;;19.30;94.80;;;;;;4996090;28;20242;-90
2022/07/16 09:37:54;;;;;;;2.90;0.90;;;19.40;94.40;;;;;;4982118;28;20196;-91
2022/07/16 09:40:37;;;;;;;1.55;0.68;;;19.70;93.90;;;;;;4978334;28;20176;-89
2022/07/16 09:43:18;;;;;;;1.95;0.70;;;20.00;93.00;;;;;;4994556;28;20625;-89
2022/07/16 09:45:47;;;;;;;3.13;0.63;;;20.10;92.40;;;;;;4991950;28;20184;-88
2022/07/16 09:48:21;;;;;;;3.83;1.27;;;20.20;92.50;;;;;;4992059;28;20181;-89
2022/07/16 09:50:48;;;;;;;3.80;0.95;;;20.40;90.90;;;;;;4988028;28;20223;-88
2022/07/16 09:53:15;;;;;;;4.95;0.90;;;20.20;91.40;;;;;;4995299;28;20514;-91
2022/07/16 09:55:57;;;;;;;3.47;0.93;;;20.50;91.80;;;;;;4995110;28;20266;-91
2022/07/16 09:58:23;;;;;;;2.03;1.00;;;20.80;91.00;;;;;;4995934;28;20227;-89
2022/07/16 10:00:49;;;;;;;3.20;0.88;;;20.90;90.80;;;;;;4994519;28;20176;-88
2022/07/16 10:03:16;;;;;;;2.50;1.00;;;20.80;90.60;;;;;;4994717;28;20589;-89
2022/07/16 10:05:42;;;;;;;1.33;0.70;;;20.90;92.20;;;;;;4994714;28;20568;-91
2022/07/16 10:08:08;;;;;;;2.03;0.70;;;21.10;91.50;;;;;;4995890;28;20179;-87
2022/07/16 10:10:33;;;;;;;2.35;0.90;;;21.30;90.60;;;;;;4994756;28;20684;-90
2022/07/16 10:12:59;;;;;;;1.73;0.82;;;21.50;91.00;;;;;;4995124;28;20228;-91
2022/07/16 10:15:25;;;;;;;2.35;0.90;;;21.20;89.70;;;;;;4988333;28;20239;-88
2022/07/16 10:17:51;;;;;;;5.32;0.80;;;20.60;90.70;;;;;;4976416;28;20204;-90
2022/07/16 10:20:19;;;;;;;3.30;0.75;;;20.30;91.30;;;;;;4979532;28;20183;-86
2022/07/16 10:22:47;;;;;;;2.15;0.80;;;20.00;90.80;;;;;;4994569;28;20179;-89
2022/07/16 10:25:25;;;;;;;4.35;0.80;;;19.90;90.50;;;;;;4994445;28;20187;-90
2022/07/16 10:27:52;;;;;;;1.67;0.63;;;19.70;90.00;;;;;;4994701;28;20229;-90
2022/07/16 10:30:22;;;;;;;4.00;0.80;;;20.00;89.70;;;;;;4995618;28;20681;-88
2022/07/16 10:33:00;;;;;;;1.48;0.70;;;20.30;89.70;;;;;;4995333;28;20298;-94
2022/07/16 10:35:34;;;;;;;7.28;0.70;;;20.60;91.00;;;;;;4993950;28;20179;-91
2022/07/16 10:38:07;;;;;;;4.50;0.90;;;20.90;90.00;;;;;;4994856;28;20191;-88
2022/07/16 10:40:38;;;;;;;4.55;1.00;;;21.10;86.80;;;;;;4994373;28;20191;-88
2022/07/16 10:43:15;;;;;;;1.65;0.52;;;21.30;87.70;;;;;;4994337;28;20638;-86
2022/07/16 10:45:58;;;;;;;3.42;0.85;;;21.70;89.20;;;;;;4994176;28;20183;-91
2022/07/16 10:48:24;;;;;;;2.45;0.60;;;21.80;86.20;;;;;;4992756;28;20179;-90
2022/07/16 10:51:24;;;;;;;3.20;0.75;;;21.70;85.00;;;;;;4993559;28;20219;-85
2022/07/16 10:53:56;;;;;;;2.55;1.00;;;21.00;86.10;;;;;;4952091;28;20250;-86
2022/07/16 10:56:48;;;;;;;6.65;0.95;;;20.50;87.60;;;;;;4994200;28;20187;-89
2022/07/16 10:59:16;;;;;;;3.83;1.00;;;20.00;88.40;;;;;;4993605;28;20238;-88
2022/07/16 11:01:46;;;;;;;3.47;0.70;;;20.10;89.50;;;;;;4994006;28;20232;-90
2022/07/16 11:04:13;;;;;;;3.95;1.05;;;20.40;88.00;;;;;;4993471;28;20190;-86
2022/07/16 11:06:40;;;;;;;3.53;0.70;;;20.80;90.80;;;;;;4993997;28;20556;-91
2022/07/16 11:09:08;;;;;;;3.97;0.95;;;21.40;85.10;;;;;;4997199;28;20697;-85
2022/07/16 11:11:37;;;;;;;2.63;0.90;;;21.70;83.10;;;;;;5013446;28;20570;-90
2022/07/16 11:14:04;;;;;;;1.95;0.50;;;21.60;78.20;;;;;;5013363;28;20614;-92
2022/07/16 11:16:30;;;;;;;2.22;0.70;;;21.30;79.40;;;;;;5013264;28;20270;-89
2022/07/16 11:19:00;;;;;;;4.45;0.63;;;21.10;77.20;;;;;;5013635;28;20273;-87
2022/07/16 11:21:26;;;;;;;4.60;0.70;;;21.10;76.60;;;;;;5013631;28;20175;-93
2022/07/16 11:23:54;;;;;;;2.75;0.80;;;21.40;76.30;;;;;;5014674;28;20174;-90
2022/07/16 11:26:21;;;;;;;3.83;0.80;;;21.70;76.80;;;;;;5013168;28;20171;-90
2022/07/16 11:28:53;;;;;;;1.60;0.60;;;21.60;75.50;;;;;;5013393;28;20180;-91
2022/07/16 11:31:30;;;;;;;1.95;0.70;;;21.30;75.30;;;;;;5007539;28;20187;-87
2022/07/16 11:34:03;;;;;;;2.85;0.93;;;21.20;76.80;;;;;;4993547;28;20614;-89
2022/07/16 11:36:31;;;;;;;2.35;0.70;;;21.30;78.00;;;;;;4992388;28;20188;-91
2022/07/16 11:39:09;;;;;;;2.00;0.65;;;21.60;77.80;;;;;;4994562;28;20179;-84
2022/07/16 11:41:38;;;;;;;3.55;0.70;;;21.90;78.30;;;;;;4993116;28;20190;-86
2022/07/16 11:44:16;;;;;;;1.30;0.60;;;22.30;77.80;;;;;;4994774;28;20619;-87
2022/07/16 11:46:53;;;;;;;2.08;0.57;;;22.10;75.70;;;;;;4980264;28;20654;-87
2022/07/16 11:49:26;;;;;;;5.63;0.85;;;21.80;78.90;;;;;;4974030;28;20663;-89
2022/07/16 11:51:54;;;;;;;2.72;0.70;;;21.50;80.80;;;;;;4973800;28;20185;-88
2022/07/16 11:54:20;;;;;;;4.07;0.80;;;21.40;81.40;;;;;;4989524;28;20187;-87
2022/07/16 11:56:46;;;;;;;4.05;1.17;;;21.50;80.00;;;;;;4994422;28;20255;-88
2022/07/16 11:59:24;;;;;;;2.90;0.80;;;21.50;80.80;;;;;;4992706;28;20176;-86
2022/07/16 12:02:10;;;;;;;3.33;0.90;;;21.70;79.00;;;;;;4993293;28;20171;-87
2022/07/16 12:04:40;;;;;;;4.57;0.90;;;21.80;78.10;;;;;;4992650;28;20188;-86
2022/07/16 12:07:11;;;;;;;2.08;0.85;;;21.50;77.70;;;;;;4993021;28;20299;-85
2022/07/16 12:09:47;;;;;;;2.22;0.70;;;21.30;79.40;;;;;;4995496;28;20231;-87
2022/07/16 12:12:15;;;;;;;3.38;1.20;;;21.50;82.10;;;;;;4976480;28;20370;-89
2022/07/16 12:14:50;;;;;;;3.97;0.70;;;21.90;77.90;;;;;;4977419;28;20224;-90
2022/07/16 12:17:25;;;;;;;5.13;0.88;;;22.10;77.50;;;;;;4993343;28;20180;-86
2022/07/16 12:20:10;;;;;;;5.50;0.90;;;21.80;77.60;;;;;;4995652;28;20201;-92
2022/07/16 12:23:12;;;;;;;5.38;0.70;;;21.40;79.70;;;;;;4991670;28;20179;-90
2022/07/16 12:25:44;;;;;;;2.60;0.80;;;21.60;79.00;;;;;;4985492;28;20641;-83
2022/07/16 12:28:19;;;;;;;2.53;0.90;;;21.80;78.40;;;;;;4993573;28;20183;-83
2022/07/16 12:30:57;;;;;;;4.15;0.90;;;21.60;76.10;;;;;;4992180;28;20250;-93
2022/07/16 12:33:25;;;;;;;3.70;0.90;;;21.40;78.10;;;;;;4996271;28;20567;-87
2022/07/16 12:36:07;;;;;;;4.15;0.65;;;21.40;79.00;;;;;;4995902;28;20172;-87
2022/07/16 12:38:54;;;;;;;3.45;0.70;;;21.40;78.50;;;;;;4995946;28;20262;-88
2022/07/16 12:41:42;;;;;;;2.10;0.70;;;21.10;79.20;;;;;;4997054;28;20183;-87
2022/07/16 12:44:08;;;;;;;3.53;0.70;;;20.90;78.80;;;;;;4994986;28;20168;-92
2022/07/16 12:46:46;;;;;;;5.90;0.80;;;20.60;77.90;;;;;;4995295;28;20275;-88
2022/07/16 12:49:14;;;;;;;7.80;1.02;;;20.70;77.80;;;;;;4994768;28;20212;-85
2022/07/16 12:51:49;;;;;;;4.20;0.80;;;20.80;77.70;;;;;;4995819;28;20266;-91
2022/07/16 12:54:16;;;;;;;2.70;0.63;;;21.00;77.00;;;;;;4994646;28;20179;-85
2022/07/16 12:59:28;;;;;;;7.10;0.80;;;21.30;77.70;;;;;;4990265;28;20714;-85
2022/07/16 13:01:54;;;;;;;4.15;0.90;;;21.20;75.90;;;;;;4986555;28;20177;-88